createdAt,value
2017-09-20T00:00:53.025Z,0
2017-09-20T00:02:06.997Z,0
2017-09-20T00:03:21.834Z,0
2017-09-20T00:04:36.842Z,0
2017-09-20T00:05:52.545Z,0
2017-09-20T00:07:08.703Z,0
2017-09-20T00:08:23.616Z,0
2017-09-20T00:09:37.866Z,0
2017-09-20T00:10:52.806Z,0
2017-09-20T00:12:08.793Z,0
2017-09-20T00:13:23.023Z,0
2017-09-20T00:14:37.571Z,0
2017-09-20T00:15:53.375Z,0
2017-09-20T00:17:08.719Z,0
2017-09-20T00:18:24.984Z,0
2017-09-20T00:19:41.001Z,0
2017-09-20T00:20:55.511Z,0
2017-09-20T00:22:09.449Z,0
2017-09-20T00:23:22.975Z,0
2017-09-20T00:24:36.859Z,0
2017-09-20T00:25:52.480Z,0
2017-09-20T00:27:06.957Z,0
2017-09-20T00:28:20.982Z,0
2017-09-20T00:29:34.527Z,0
2017-09-20T00:30:48.055Z,0
2017-09-20T00:32:01.683Z,0
2017-09-20T00:33:15.543Z,0
2017-09-20T00:34:29.670Z,0
2017-09-20T00:35:43.563Z,0
2017-09-20T00:36:57.061Z,0
2017-09-20T00:38:10.586Z,0
2017-09-20T00:39:24.188Z,0
2017-09-20T00:40:38.293Z,0
2017-09-20T00:41:52.561Z,0
2017-09-20T00:43:06.078Z,0
2017-09-20T00:44:19.549Z,0
2017-09-20T00:45:33.771Z,0
2017-09-20T00:46:48.648Z,0
2017-09-20T00:48:02.148Z,0
2017-09-20T00:49:15.674Z,0
2017-09-20T00:50:30.079Z,0
2017-09-20T00:51:44.201Z,0
2017-09-20T00:52:58.330Z,0
2017-09-20T00:54:12.144Z,0
2017-09-20T00:55:25.834Z,0
2017-09-20T00:56:40.008Z,0
2017-09-20T00:57:53.923Z,0
2017-09-20T00:59:07.763Z,0
2017-09-20T01:00:21.298Z,0
2017-09-20T01:01:35.348Z,0
2017-09-20T01:02:49.800Z,0
2017-09-20T01:04:03.904Z,0
2017-09-20T01:05:18.142Z,0
2017-09-20T01:06:31.615Z,0
2017-09-20T01:07:45.398Z,0
2017-09-20T01:08:58.966Z,0
2017-09-20T01:10:12.461Z,0
2017-09-20T01:11:26.242Z,0
2017-09-20T01:12:39.813Z,0
2017-09-20T01:13:53.308Z,0
2017-09-20T01:15:07.019Z,0
2017-09-20T01:16:20.909Z,0
2017-09-20T01:17:34.800Z,0
2017-09-20T01:18:48.301Z,0
2017-09-20T01:20:01.773Z,0
2017-09-20T01:21:15.921Z,0
2017-09-20T01:22:29.853Z,0
2017-09-20T01:23:43.665Z,0
2017-09-20T01:24:57.293Z,0
2017-09-20T01:26:10.779Z,0
2017-09-20T01:27:24.275Z,0
2017-09-20T01:28:37.765Z,0
2017-09-20T01:29:51.735Z,0
2017-09-20T01:31:05.290Z,0
2017-09-20T01:32:19.088Z,0
2017-09-20T01:33:32.597Z,0
2017-09-20T01:34:46.772Z,0
2017-09-20T01:36:00.699Z,0
2017-09-20T01:37:14.269Z,0
2017-09-20T01:38:27.765Z,0
2017-09-20T01:39:41.261Z,0
2017-09-20T01:40:54.830Z,0
2017-09-20T01:42:08.784Z,0
2017-09-20T01:43:22.298Z,0
2017-09-20T01:44:36.171Z,0
2017-09-20T01:45:49.763Z,0
2017-09-20T01:47:03.257Z,0
2017-09-20T01:48:17.067Z,0
2017-09-20T01:49:31.013Z,0
2017-09-20T01:50:44.481Z,0
2017-09-20T01:51:58.109Z,0
2017-09-20T01:53:11.599Z,0
2017-09-20T01:54:25.422Z,0
2017-09-20T01:55:38.909Z,0
2017-09-20T01:56:52.482Z,0
2017-09-20T01:58:05.976Z,0
2017-09-20T01:59:19.479Z,0
2017-09-20T02:00:33.292Z,0
2017-09-20T02:01:47.166Z,0
2017-09-20T02:03:00.719Z,0
2017-09-20T02:04:14.218Z,0
2017-09-20T02:05:27.707Z,0
2017-09-20T02:06:41.570Z,0
2017-09-20T02:07:55.646Z,0
2017-09-20T02:09:09.127Z,0
2017-09-20T02:10:22.652Z,0
2017-09-20T02:11:36.149Z,0
2017-09-20T02:12:49.956Z,0
2017-09-20T02:14:03.521Z,0
2017-09-20T02:15:18.032Z,0
2017-09-20T02:16:31.567Z,0
2017-09-20T02:17:45.068Z,0
2017-09-20T02:18:59.266Z,0
2017-09-20T02:20:12.761Z,0
2017-09-20T02:21:26.422Z,0
2017-09-20T02:22:39.963Z,0
2017-09-20T02:23:53.471Z,0
2017-09-20T02:25:07.293Z,0
2017-09-20T02:26:20.772Z,0
2017-09-20T02:27:34.262Z,0
2017-09-20T02:28:48.249Z,0
2017-09-20T02:30:01.825Z,0
2017-09-20T02:31:16.108Z,0
2017-09-20T02:32:29.585Z,0
2017-09-20T02:33:43.090Z,0
2017-09-20T02:34:56.991Z,0
2017-09-20T02:36:10.795Z,0
2017-09-20T02:37:24.723Z,0
2017-09-20T02:38:38.227Z,0
2017-09-20T02:39:51.722Z,0
2017-09-20T02:41:05.308Z,0
2017-09-20T02:42:19.332Z,0
2017-09-20T02:43:33.175Z,0
2017-09-20T02:44:46.688Z,0
2017-09-20T02:46:00.175Z,0
2017-09-20T02:47:13.922Z,0
2017-09-20T02:48:27.756Z,0
2017-09-20T02:49:41.569Z,0
2017-09-20T02:50:55.097Z,0
2017-09-20T02:52:08.585Z,0
2017-09-20T02:53:22.564Z,0
2017-09-20T02:54:36.331Z,0
2017-09-20T02:55:51.181Z,0
2017-09-20T02:57:04.753Z,0
2017-09-20T02:58:31.272Z,0
2017-09-20T02:59:45.200Z,0
2017-09-20T03:00:58.870Z,0
2017-09-20T03:02:12.661Z,0
2017-09-20T03:03:26.188Z,0
2017-09-20T03:04:39.687Z,0
2017-09-20T03:05:53.258Z,0
2017-09-20T03:07:06.800Z,0
2017-09-20T03:08:20.655Z,0
2017-09-20T03:09:34.562Z,0
2017-09-20T03:10:48.584Z,0
2017-09-20T03:12:02.104Z,0
2017-09-20T03:13:21.230Z,0
2017-09-20T03:14:38.372Z,0
2017-09-20T03:15:52.001Z,0
2017-09-20T03:17:05.542Z,0
2017-09-20T03:18:19.126Z,0
2017-09-20T03:19:32.651Z,0
2017-09-20T03:20:46.582Z,0
2017-09-20T03:22:00.133Z,0
2017-09-20T03:23:13.734Z,0
2017-09-20T03:24:28.421Z,0
2017-09-20T03:25:42.641Z,0
2017-09-20T03:26:56.740Z,0
2017-09-20T03:28:11.593Z,0
2017-09-20T03:29:25.186Z,0
2017-09-20T03:30:40.126Z,0
2017-09-20T03:31:54.993Z,0
2017-09-20T03:33:10.325Z,0
2017-09-20T03:34:24.537Z,0
2017-09-20T03:35:39.044Z,0
2017-09-20T03:36:52.962Z,0
2017-09-20T03:38:06.809Z,0
2017-09-20T03:39:20.629Z,0
2017-09-20T03:40:34.175Z,0
2017-09-20T03:41:48.652Z,0
2017-09-20T03:43:02.144Z,0
2017-09-20T03:44:15.670Z,0
2017-09-20T03:45:29.457Z,0
2017-09-20T03:46:42.943Z,0
2017-09-20T03:47:56.450Z,0
2017-09-20T03:49:10.149Z,0
2017-09-20T03:50:23.781Z,0
2017-09-20T03:51:37.580Z,0
2017-09-20T03:52:51.075Z,0
2017-09-20T03:54:04.570Z,0
2017-09-20T03:55:18.435Z,0
2017-09-20T03:56:31.928Z,0
2017-09-20T03:57:45.845Z,0
2017-09-20T03:58:59.314Z,0
2017-09-20T04:00:12.892Z,0
2017-09-20T04:01:26.500Z,0
2017-09-20T04:02:40.374Z,0
2017-09-20T04:03:54.414Z,0
2017-09-20T04:05:07.949Z,0
2017-09-20T04:06:22.046Z,0
2017-09-20T04:07:35.536Z,0
2017-09-20T04:08:49.062Z,0
2017-09-20T04:10:03.129Z,0
2017-09-20T04:11:16.731Z,0
2017-09-20T04:12:30.561Z,0
2017-09-20T04:13:44.416Z,0
2017-09-20T04:14:57.917Z,0
2017-09-20T04:16:11.863Z,0
2017-09-20T04:17:25.815Z,0
2017-09-20T04:18:39.349Z,0
2017-09-20T04:19:52.888Z,0
2017-09-20T04:21:06.384Z,0
2017-09-20T04:22:20.393Z,0
2017-09-20T04:23:34.732Z,0
2017-09-20T04:24:48.595Z,0
2017-09-20T04:26:02.125Z,0
2017-09-20T04:27:15.983Z,0
2017-09-20T04:28:29.971Z,0
2017-09-20T04:29:44.285Z,0
2017-09-20T04:30:57.886Z,0
2017-09-20T04:32:11.488Z,0
2017-09-20T04:33:24.995Z,0
2017-09-20T04:34:38.805Z,0
2017-09-20T04:35:52.321Z,0
2017-09-20T04:37:05.832Z,0
2017-09-20T04:38:19.313Z,0
2017-09-20T04:39:32.797Z,0
2017-09-20T04:40:46.605Z,0
2017-09-20T04:42:00.622Z,0
2017-09-20T04:43:14.477Z,0
2017-09-20T04:44:28.015Z,0
2017-09-20T04:45:41.691Z,0
2017-09-20T04:46:55.483Z,0
2017-09-20T04:48:09.326Z,4
2017-09-20T04:49:23.173Z,4
2017-09-20T04:50:37.191Z,0
2017-09-20T04:51:50.701Z,4
2017-09-20T04:53:04.679Z,8
2017-09-20T04:54:18.171Z,4
2017-09-20T04:55:31.682Z,4
2017-09-20T04:56:45.454Z,8
2017-09-20T04:57:59.183Z,12
2017-09-20T04:59:13.005Z,12
2017-09-20T05:00:26.505Z,12
2017-09-20T05:01:39.982Z,12
2017-09-20T05:02:54.493Z,16
2017-09-20T05:04:08.051Z,20
2017-09-20T05:05:22.573Z,24
2017-09-20T05:06:36.124Z,32
2017-09-20T05:07:49.612Z,36
2017-09-20T05:09:03.779Z,40
2017-09-20T05:10:17.488Z,52
2017-09-20T05:11:31.276Z,64
2017-09-20T05:12:44.778Z,68
2017-09-20T05:13:58.312Z,76
2017-09-20T05:15:12.023Z,80
2017-09-20T05:16:25.530Z,92
2017-09-20T05:17:39.953Z,100
2017-09-20T05:18:53.467Z,112
2017-09-20T05:20:07.008Z,120
2017-09-20T05:21:20.894Z,136
2017-09-20T05:22:35.127Z,156
2017-09-20T05:23:48.974Z,180
2017-09-20T05:25:02.573Z,200
2017-09-20T05:26:16.066Z,220
2017-09-20T05:27:29.661Z,236
2017-09-20T05:28:43.149Z,256
2017-09-20T05:29:57.134Z,240
2017-09-20T05:31:10.623Z,216
2017-09-20T05:32:24.133Z,196
2017-09-20T05:33:38.362Z,188
2017-09-20T05:34:52.457Z,196
2017-09-20T05:36:06.780Z,204
2017-09-20T05:37:20.335Z,212
2017-09-20T05:38:33.965Z,224
2017-09-20T05:39:48.994Z,240
2017-09-20T05:41:03.025Z,268
2017-09-20T05:42:17.391Z,308
2017-09-20T05:43:39.329Z,380
2017-09-20T05:44:53.339Z,440
2017-09-20T05:46:06.895Z,456
2017-09-20T05:47:20.519Z,468
2017-09-20T05:48:34.642Z,520
2017-09-20T05:49:48.620Z,564
2017-09-20T05:51:02.100Z,584
2017-09-20T05:52:15.727Z,608
2017-09-20T05:53:29.376Z,640
2017-09-20T05:54:43.518Z,684
2017-09-20T05:55:57.018Z,724
2017-09-20T05:57:10.562Z,760
2017-09-20T05:58:24.429Z,776
2017-09-20T05:59:37.918Z,764
2017-09-20T06:00:51.816Z,672
2017-09-20T06:02:05.606Z,636
2017-09-20T06:03:19.094Z,608
2017-09-20T06:04:33.577Z,596
2017-09-20T06:05:47.104Z,612
2017-09-20T06:07:01.045Z,632
2017-09-20T06:08:14.559Z,640
2017-09-20T06:09:28.463Z,636
2017-09-20T06:10:42.071Z,628
2017-09-20T06:11:55.553Z,612
2017-09-20T06:13:09.422Z,612
2017-09-20T06:14:23.253Z,616
2017-09-20T06:15:36.754Z,620
2017-09-20T06:16:50.262Z,628
2017-09-20T06:18:03.949Z,648
2017-09-20T06:19:17.830Z,692
2017-09-20T06:20:31.357Z,756
2017-09-20T06:21:44.913Z,848
2017-09-20T06:22:58.628Z,940
2017-09-20T06:24:12.161Z,1004
2017-09-20T06:25:26.800Z,1044
2017-09-20T06:26:40.812Z,1064
2017-09-20T06:27:54.330Z,1044
2017-09-20T06:29:08.065Z,996
2017-09-20T06:30:21.866Z,964
2017-09-20T06:31:35.770Z,940
2017-09-20T06:32:49.345Z,976
2017-09-20T06:34:02.878Z,948
2017-09-20T06:35:16.628Z,880
2017-09-20T06:36:30.225Z,792
2017-09-20T06:37:44.413Z,708
2017-09-20T06:38:57.992Z,684
2017-09-20T06:40:11.593Z,724
2017-09-20T06:41:25.208Z,800
2017-09-20T06:42:38.895Z,896
2017-09-20T06:43:53.340Z,996
2017-09-20T06:45:06.893Z,1072
2017-09-20T06:46:20.434Z,1160
2017-09-20T06:47:35.046Z,1320
2017-09-20T06:48:48.657Z,1536
2017-09-20T06:50:03.220Z,1800
2017-09-20T06:51:17.014Z,1908
2017-09-20T06:52:30.953Z,1936
2017-09-20T06:53:45.016Z,1952
2017-09-20T06:54:58.587Z,1980
2017-09-20T06:56:12.507Z,2072
2017-09-20T06:57:26.170Z,2276
2017-09-20T06:58:39.713Z,2484
2017-09-20T06:59:53.534Z,2700
2017-09-20T07:01:07.328Z,2836
2017-09-20T07:02:21.136Z,2884
2017-09-20T07:03:34.657Z,2904
2017-09-20T07:04:48.673Z,2880
2017-09-20T07:06:02.547Z,2820
2017-09-20T07:07:16.101Z,2804
2017-09-20T07:08:29.995Z,2796
2017-09-20T07:09:44.278Z,2752
2017-09-20T07:10:57.809Z,2656
2017-09-20T07:12:11.812Z,2580
2017-09-20T07:13:26.034Z,2592
2017-09-20T07:14:40.279Z,2664
2017-09-20T07:15:53.808Z,2836
2017-09-20T07:17:07.767Z,3192
2017-09-20T07:18:22.177Z,3424
2017-09-20T07:19:36.051Z,3752
2017-09-20T07:20:49.982Z,3836
2017-09-20T07:22:03.622Z,3884
2017-09-20T07:23:17.140Z,3744
2017-09-20T07:24:31.032Z,3320
2017-09-20T07:25:44.834Z,2940
2017-09-20T07:26:58.669Z,2532
2017-09-20T07:28:12.630Z,2244
2017-09-20T07:29:26.780Z,2188
2017-09-20T07:30:40.575Z,2260
2017-09-20T07:31:55.151Z,2356
2017-09-20T07:33:09.199Z,2428
2017-09-20T07:34:22.955Z,2488
2017-09-20T07:35:37.687Z,2532
2017-09-20T07:36:51.877Z,2516
2017-09-20T07:38:06.095Z,2540
2017-09-20T07:39:20.120Z,2608
2017-09-20T07:40:34.018Z,2808
2017-09-20T07:41:47.623Z,3056
2017-09-20T07:43:01.256Z,3240
2017-09-20T07:44:14.765Z,3364
2017-09-20T07:45:28.643Z,3488
2017-09-20T07:46:42.581Z,3612
2017-09-20T07:47:56.497Z,3688
2017-09-20T07:49:10.068Z,3776
2017-09-20T07:50:23.578Z,3828
2017-09-20T07:51:37.718Z,3800
2017-09-20T07:52:51.486Z,3752
2017-09-20T07:54:05.208Z,3800
2017-09-20T07:55:18.724Z,3860
2017-09-20T07:56:32.247Z,3844
2017-09-20T07:57:46.124Z,3824
2017-09-20T07:58:59.738Z,3824
2017-09-20T08:00:13.312Z,3780
2017-09-20T08:01:27.034Z,3832
2017-09-20T08:02:40.674Z,3992
2017-09-20T08:03:54.516Z,4228
2017-09-20T08:05:08.626Z,4436
2017-09-20T08:06:22.911Z,4544
2017-09-20T08:07:37.365Z,4624
2017-09-20T08:09:10.440Z,4596
2017-09-20T08:10:23.965Z,4492
2017-09-20T08:11:37.663Z,4108
2017-09-20T08:12:52.056Z,3712
2017-09-20T08:14:05.942Z,3524
2017-09-20T08:15:19.890Z,3320
2017-09-20T08:16:33.472Z,3068
2017-09-20T08:17:47.121Z,2848
2017-09-20T08:19:00.981Z,2712
2017-09-20T08:20:14.508Z,2592
2017-09-20T08:21:28.629Z,2512
2017-09-20T08:22:42.119Z,2540
2017-09-20T08:23:55.641Z,2652
2017-09-20T08:25:09.352Z,2776
2017-09-20T08:26:23.508Z,2820
2017-09-20T08:27:37.982Z,2808
2017-09-20T08:28:52.042Z,2780
2017-09-20T08:30:05.630Z,2716
2017-09-20T08:31:19.145Z,2732
2017-09-20T08:32:32.851Z,2800
2017-09-20T08:33:46.752Z,2904
2017-09-20T08:35:00.256Z,3024
2017-09-20T08:36:14.446Z,3088
2017-09-20T08:37:28.070Z,3188
2017-09-20T08:38:41.679Z,3264
2017-09-20T08:39:55.518Z,3296
2017-09-20T08:41:09.367Z,3388
2017-09-20T08:42:23.405Z,3468
2017-09-20T08:43:37.107Z,3548
2017-09-20T08:44:50.602Z,3624
2017-09-20T08:46:04.537Z,3732
2017-09-20T08:47:18.095Z,3832
2017-09-20T08:48:31.677Z,3924
2017-09-20T08:49:45.257Z,3892
2017-09-20T08:50:58.803Z,3756
2017-09-20T08:52:12.817Z,3572
2017-09-20T08:53:26.786Z,3388
2017-09-20T08:54:40.631Z,3304
2017-09-20T08:55:54.157Z,3280
2017-09-20T08:57:07.674Z,3328
2017-09-20T08:58:21.766Z,3376
2017-09-20T08:59:35.299Z,3312
2017-09-20T09:00:48.852Z,3196
2017-09-20T09:02:02.406Z,3176
2017-09-20T09:03:15.947Z,3224
2017-09-20T09:04:29.848Z,3344
2017-09-20T09:05:43.382Z,3492
2017-09-20T09:06:56.936Z,3444
2017-09-20T09:08:10.516Z,3304
2017-09-20T09:09:24.070Z,3340
2017-09-20T09:10:57.139Z,3608
2017-09-20T09:12:10.638Z,3920
2017-09-20T09:13:24.853Z,4200
2017-09-20T09:14:38.610Z,4428
2017-09-20T09:15:52.156Z,4460
2017-09-20T09:17:05.990Z,4404
2017-09-20T09:18:19.465Z,4340
2017-09-20T09:19:33.008Z,4392
2017-09-20T09:20:46.575Z,4496
2017-09-20T09:22:00.945Z,4548
2017-09-20T09:23:14.865Z,4668
2017-09-20T09:24:28.722Z,4880
2017-09-20T09:25:42.308Z,5060
2017-09-20T09:26:56.041Z,5260
2017-09-20T09:28:09.556Z,5508
2017-09-20T09:29:23.610Z,5708
2017-09-20T09:30:37.178Z,5832
2017-09-20T09:31:50.661Z,5888
2017-09-20T09:33:04.512Z,5892
2017-09-20T09:34:18.431Z,5760
2017-09-20T09:35:32.743Z,5616
2017-09-20T09:36:46.288Z,5424
2017-09-20T09:37:59.849Z,5012
2017-09-20T09:39:13.366Z,4640
2017-09-20T09:40:27.062Z,4344
2017-09-20T09:41:41.932Z,4124
2017-09-20T09:42:56.099Z,3980
2017-09-20T09:44:09.930Z,3956
2017-09-20T09:45:23.914Z,3940
2017-09-20T09:46:37.766Z,3892
2017-09-20T09:47:51.778Z,3884
2017-09-20T09:49:05.682Z,4044
2017-09-20T09:50:19.309Z,4248
2017-09-20T09:51:33.474Z,4408
2017-09-20T09:52:47.124Z,4708
2017-09-20T09:54:00.683Z,5028
2017-09-20T09:55:14.784Z,5268
2017-09-20T09:56:28.341Z,5688
2017-09-20T09:57:41.940Z,6420
2017-09-20T09:58:55.465Z,6772
2017-09-20T10:00:09.640Z,6904
2017-09-20T10:01:23.501Z,6768
2017-09-20T10:02:37.055Z,6580
2017-09-20T10:03:50.627Z,6592
2017-09-20T10:05:04.906Z,6684
2017-09-20T10:06:19.056Z,6800
2017-09-20T10:07:32.605Z,6704
2017-09-20T10:08:46.194Z,6872
2017-09-20T10:10:00.155Z,7144
2017-09-20T10:11:14.034Z,7344
2017-09-20T10:12:28.213Z,7320
2017-09-20T10:13:42.058Z,7152
2017-09-20T10:14:55.656Z,7108
2017-09-20T10:16:09.447Z,6792
2017-09-20T10:17:23.302Z,6572
2017-09-20T10:18:37.146Z,6364
2017-09-20T10:19:50.737Z,6172
2017-09-20T10:21:04.263Z,5912
2017-09-20T10:22:18.332Z,5784
2017-09-20T10:23:32.114Z,5804
2017-09-20T10:25:04.871Z,5704
2017-09-20T10:26:18.463Z,5616
2017-09-20T10:27:32.340Z,5504
2017-09-20T10:28:46.217Z,5396
2017-09-20T10:30:00.674Z,5308
2017-09-20T10:31:14.741Z,5200
2017-09-20T10:32:28.824Z,5052
2017-09-20T10:33:42.622Z,4896
2017-09-20T10:34:56.148Z,4788
2017-09-20T10:36:10.170Z,4732
2017-09-20T10:37:24.076Z,4772
2017-09-20T10:38:38.240Z,4828
2017-09-20T10:39:51.828Z,4804
2017-09-20T10:41:05.955Z,4712
2017-09-20T10:42:20.422Z,4720
2017-09-20T10:43:35.010Z,4860
2017-09-20T10:44:48.649Z,4928
2017-09-20T10:46:02.369Z,4784
2017-09-20T10:47:16.296Z,4596
2017-09-20T10:48:29.942Z,4448
2017-09-20T10:49:43.801Z,4332
2017-09-20T10:50:57.669Z,4228
2017-09-20T10:52:11.182Z,4012
2017-09-20T10:53:25.188Z,3804
2017-09-20T10:54:39.899Z,3800
2017-09-20T10:55:54.280Z,3804
2017-09-20T10:57:08.531Z,3832
2017-09-20T10:58:22.353Z,4096
2017-09-20T10:59:36.033Z,4284
2017-09-20T11:00:49.574Z,4324
2017-09-20T11:02:03.433Z,4184
2017-09-20T11:03:17.315Z,4036
2017-09-20T11:04:30.964Z,3748
2017-09-20T11:05:45.005Z,3460
2017-09-20T11:06:58.911Z,3484
2017-09-20T11:08:12.906Z,3824
2017-09-20T11:09:26.704Z,4264
2017-09-20T11:10:40.737Z,4560
2017-09-20T11:11:54.374Z,4740
2017-09-20T11:13:07.907Z,4684
2017-09-20T11:14:22.685Z,4568
2017-09-20T11:15:37.578Z,4328
2017-09-20T11:16:52.563Z,4364
2017-09-20T11:18:06.866Z,4460
2017-09-20T11:19:20.587Z,4692
2017-09-20T11:20:35.279Z,5036
2017-09-20T11:21:49.788Z,5272
2017-09-20T11:23:03.533Z,5308
2017-09-20T11:24:18.418Z,5424
2017-09-20T11:25:32.557Z,5476
2017-09-20T11:26:47.266Z,5528
2017-09-20T11:28:01.143Z,5784
2017-09-20T11:29:15.341Z,6048
2017-09-20T11:30:29.455Z,6312
2017-09-20T11:31:43.187Z,6412
2017-09-20T11:32:57.695Z,6236
2017-09-20T11:34:11.257Z,5820
2017-09-20T11:35:24.998Z,5552
2017-09-20T11:36:38.998Z,5820
2017-09-20T11:37:52.690Z,6300
2017-09-20T11:39:12.898Z,6244
2017-09-20T11:40:26.641Z,5668
2017-09-20T11:41:41.137Z,5332
2017-09-20T11:42:54.827Z,5300
2017-09-20T11:44:08.805Z,5460
2017-09-20T11:45:23.625Z,5760
2017-09-20T11:46:37.611Z,5988
2017-09-20T11:47:51.185Z,5936
2017-09-20T11:49:04.881Z,5864
2017-09-20T11:50:18.586Z,6088
2017-09-20T11:51:32.444Z,6572
2017-09-20T11:52:46.208Z,6592
2017-09-20T11:53:59.790Z,6452
2017-09-20T11:55:13.972Z,6284
2017-09-20T11:56:27.753Z,6300
2017-09-20T11:57:41.666Z,6112
2017-09-20T11:58:55.698Z,6036
2017-09-20T12:00:09.713Z,5656
2017-09-20T12:01:24.094Z,5680
2017-09-20T12:02:37.764Z,5852
2017-09-20T12:03:53.191Z,5624
2017-09-20T12:05:08.338Z,5516
2017-09-20T12:06:22.111Z,5544
2017-09-20T12:07:35.734Z,5556
2017-09-20T12:08:49.560Z,5248
2017-09-20T12:10:04.307Z,4948
2017-09-20T12:11:18.646Z,4832
2017-09-20T12:12:32.273Z,4924
2017-09-20T12:13:45.863Z,5124
2017-09-20T12:15:00.119Z,5408
2017-09-20T12:16:14.164Z,5496
2017-09-20T12:17:28.039Z,5548
2017-09-20T12:18:41.573Z,5500
2017-09-20T12:19:55.163Z,5576
2017-09-20T12:21:08.764Z,5588
2017-09-20T12:22:22.871Z,5448
2017-09-20T12:23:38.268Z,5404
2017-09-20T12:24:52.512Z,5396
2017-09-20T12:26:06.026Z,5464
2017-09-20T12:27:19.877Z,5436
2017-09-20T12:28:34.028Z,5144
2017-09-20T12:29:48.349Z,4812
2017-09-20T12:31:48.892Z,4564
2017-09-20T12:33:03.048Z,4588
2017-09-20T12:34:17.932Z,4684
2017-09-20T12:35:31.472Z,4680
2017-09-20T12:36:45.118Z,4552
2017-09-20T12:37:58.709Z,4564
2017-09-20T12:39:12.406Z,4736
2017-09-20T12:40:26.727Z,5004
2017-09-20T12:41:40.455Z,5316
2017-09-20T12:42:54.117Z,5620
2017-09-20T12:44:07.727Z,5796
2017-09-20T12:45:21.576Z,5872
2017-09-20T12:46:35.623Z,5848
2017-09-20T12:47:49.258Z,5736
2017-09-20T12:49:03.883Z,5408
2017-09-20T12:50:17.622Z,5236
2017-09-20T12:51:32.570Z,5308
2017-09-20T12:52:46.616Z,5244
2017-09-20T12:54:00.604Z,5084
2017-09-20T12:55:14.598Z,5044
2017-09-20T12:56:28.210Z,5112
2017-09-20T12:57:41.842Z,5080
2017-09-20T12:58:55.692Z,4992
2017-09-20T13:00:09.608Z,4736
2017-09-20T13:01:23.860Z,4520
2017-09-20T13:02:37.477Z,4256
2017-09-20T13:03:51.276Z,4080
2017-09-20T13:05:05.972Z,4052
2017-09-20T13:06:20.018Z,4020
2017-09-20T13:07:33.559Z,3816
2017-09-20T13:08:48.003Z,3532
2017-09-20T13:10:02.723Z,3324
2017-09-20T13:11:17.350Z,3224
2017-09-20T13:12:32.754Z,3236
2017-09-20T13:13:48.457Z,3356
2017-09-20T13:15:02.136Z,3580
2017-09-20T13:16:16.950Z,3824
2017-09-20T13:17:31.150Z,4060
2017-09-20T13:18:45.554Z,4208
2017-09-20T13:20:00.084Z,4136
2017-09-20T13:21:15.279Z,3964
2017-09-20T13:22:28.892Z,3724
2017-09-20T13:23:42.762Z,3516
2017-09-20T13:24:56.634Z,3304
2017-09-20T13:26:10.891Z,3180
2017-09-20T13:27:24.923Z,3204
2017-09-20T13:28:38.718Z,3176
2017-09-20T13:29:52.801Z,2940
2017-09-20T13:31:07.418Z,2736
2017-09-20T13:32:21.078Z,2632
2017-09-20T13:33:34.949Z,2540
2017-09-20T13:34:48.555Z,2452
2017-09-20T13:36:03.472Z,2396
2017-09-20T13:37:17.670Z,2412
2017-09-20T13:38:31.585Z,2520
2017-09-20T13:39:45.703Z,2620
2017-09-20T13:41:00.837Z,2692
2017-09-20T13:42:15.421Z,2772
2017-09-20T13:43:29.122Z,2980
2017-09-20T13:44:42.741Z,3088
2017-09-20T13:45:57.048Z,3080
2017-09-20T13:47:10.719Z,3140
2017-09-20T13:48:24.985Z,3180
2017-09-20T13:49:39.199Z,3308
2017-09-20T13:50:53.395Z,3348
2017-09-20T13:52:07.119Z,3400
2017-09-20T13:53:21.567Z,3432
2017-09-20T13:54:35.651Z,3488
2017-09-20T13:55:49.433Z,3464
2017-09-20T13:57:03.807Z,3380
2017-09-20T13:58:24.326Z,3336
2017-09-20T13:59:38.449Z,3328
2017-09-20T14:00:52.501Z,3368
2017-09-20T14:02:06.315Z,3424
2017-09-20T14:03:51.894Z,3548
2017-09-20T14:05:05.548Z,3684
2017-09-20T14:06:19.750Z,3684
2017-09-20T14:07:34.137Z,3404
2017-09-20T14:08:48.101Z,3368
2017-09-20T14:10:02.092Z,3344
2017-09-20T14:11:16.705Z,3288
2017-09-20T14:12:30.802Z,3384
2017-09-20T14:13:44.654Z,3216
2017-09-20T14:14:58.235Z,3176
2017-09-20T14:16:12.208Z,3236
2017-09-20T14:17:25.761Z,3320
2017-09-20T14:18:40.014Z,3580
2017-09-20T14:19:54.156Z,3640
2017-09-20T14:21:07.881Z,3400
2017-09-20T14:22:21.501Z,3012
2017-09-20T14:23:35.144Z,2692
2017-09-20T14:24:49.432Z,2472
2017-09-20T14:26:03.182Z,2256
2017-09-20T14:27:16.790Z,1968
2017-09-20T14:28:30.545Z,1872
2017-09-20T14:29:44.712Z,1800
2017-09-20T14:30:59.543Z,1716
2017-09-20T14:32:13.078Z,1612
2017-09-20T14:33:26.807Z,1536
2017-09-20T14:34:40.819Z,1508
2017-09-20T14:35:55.586Z,1480
2017-09-20T14:37:10.692Z,1508
2017-09-20T14:38:24.568Z,1564
2017-09-20T14:39:38.848Z,1648
2017-09-20T14:40:52.826Z,1752
2017-09-20T14:42:06.963Z,1944
2017-09-20T14:43:21.750Z,2032
2017-09-20T14:44:35.842Z,2076
2017-09-20T14:45:49.747Z,2136
2017-09-20T14:47:03.945Z,2104
2017-09-20T14:48:19.238Z,2076
2017-09-20T14:49:33.394Z,2064
2017-09-20T14:50:47.377Z,1896
2017-09-20T14:52:01.158Z,2008
2017-09-20T14:53:15.147Z,2104
2017-09-20T14:54:48.961Z,2008
2017-09-20T14:56:02.884Z,2024
2017-09-20T14:57:17.182Z,1960
2017-09-20T14:58:30.712Z,1836
2017-09-20T14:59:44.784Z,1800
2017-09-20T15:00:58.430Z,1780
2017-09-20T15:02:12.541Z,1772
2017-09-20T15:03:26.236Z,1796
2017-09-20T15:04:40.321Z,1808
2017-09-20T15:05:54.102Z,1780
2017-09-20T15:07:07.604Z,1900
2017-09-20T15:08:21.538Z,1856
2017-09-20T15:09:35.488Z,1776
2017-09-20T15:10:49.085Z,1704
2017-09-20T15:12:02.798Z,1624
2017-09-20T15:13:16.700Z,1560
2017-09-20T15:14:31.204Z,1536
2017-09-20T15:15:45.286Z,1520
2017-09-20T15:16:59.947Z,1436
2017-09-20T15:18:13.626Z,1400
2017-09-20T15:19:27.245Z,1368
2017-09-20T15:20:41.613Z,1364
2017-09-20T15:21:55.327Z,1384
2017-09-20T15:23:08.898Z,1440
2017-09-20T15:24:22.821Z,1492
2017-09-20T15:25:36.554Z,1536
2017-09-20T15:26:50.432Z,1592
2017-09-20T15:28:04.359Z,1600
2017-09-20T15:29:17.906Z,1608
2017-09-20T15:30:31.754Z,1636
2017-09-20T15:31:46.133Z,1700
2017-09-20T15:33:00.180Z,1748
2017-09-20T15:34:13.986Z,1748
2017-09-20T15:35:27.957Z,1704
2017-09-20T15:36:41.519Z,1652
2017-09-20T15:37:55.118Z,1592
2017-09-20T15:39:09.116Z,1548
2017-09-20T15:40:23.271Z,1508
2017-09-20T15:41:36.798Z,1464
2017-09-20T15:42:50.429Z,1392
2017-09-20T15:44:04.536Z,1340
2017-09-20T15:45:18.846Z,1280
2017-09-20T15:47:07.686Z,1196
2017-09-20T15:48:21.513Z,1188
2017-09-20T15:49:35.527Z,1184
2017-09-20T15:50:49.722Z,1172
2017-09-20T15:52:03.289Z,1164
2017-09-20T15:53:16.903Z,1220
2017-09-20T15:54:30.777Z,1316
2017-09-20T15:55:44.846Z,1448
2017-09-20T15:56:58.836Z,1604
2017-09-20T16:02:26.595Z,1380
2017-09-20T16:03:40.730Z,1388
2017-09-20T16:05:09.621Z,1232
2017-09-20T16:06:26.781Z,1180
2017-09-20T16:07:40.419Z,1232
2017-09-20T16:08:54.106Z,1156
2017-09-20T16:10:07.677Z,1104
2017-09-20T16:11:21.357Z,1172
2017-09-20T16:12:34.991Z,1236
2017-09-20T16:13:49.021Z,1248
2017-09-20T16:15:03.482Z,1220
2017-09-20T16:16:17.024Z,1100
2017-09-20T16:17:30.676Z,1008
2017-09-20T16:18:44.981Z,976
2017-09-20T16:19:58.531Z,976
2017-09-20T16:21:12.451Z,916
2017-09-20T16:22:26.561Z,824
2017-09-20T16:23:40.173Z,680
2017-09-20T16:24:54.348Z,704
2017-09-20T16:26:08.024Z,876
2017-09-20T16:27:22.015Z,1052
2017-09-20T16:28:35.714Z,912
2017-09-20T16:29:49.675Z,824
2017-09-20T16:31:06.016Z,884
2017-09-20T16:32:21.976Z,844
2017-09-20T16:33:37.173Z,732
2017-09-20T16:34:52.277Z,732
2017-09-20T16:36:07.492Z,704
2017-09-20T16:37:21.805Z,604
2017-09-20T16:38:35.634Z,532
2017-09-20T16:39:50.857Z,488
2017-09-20T16:41:04.887Z,464
2017-09-20T16:42:18.938Z,460
2017-09-20T16:43:34.070Z,460
2017-09-20T16:44:48.418Z,448
2017-09-20T16:46:02.389Z,444
2017-09-20T16:47:18.596Z,448
2017-09-20T16:48:38.955Z,428
2017-09-20T16:49:52.835Z,416
2017-09-20T16:51:07.411Z,428
2017-09-20T16:52:22.141Z,452
2017-09-20T16:53:37.342Z,572
2017-09-20T16:54:51.612Z,648
2017-09-20T16:56:06.702Z,584
2017-09-20T16:57:20.822Z,496
2017-09-20T16:58:35.943Z,444
2017-09-20T16:59:51.027Z,416
2017-09-20T17:01:05.299Z,392
2017-09-20T17:02:19.811Z,364
2017-09-20T17:03:33.838Z,340
2017-09-20T17:04:48.253Z,324
2017-09-20T17:06:02.211Z,304
2017-09-20T17:07:16.685Z,280
2017-09-20T17:08:31.103Z,264